createdAt,value
2023-04-09T00:00:19.355Z,71.02
2023-04-09T00:03:07.717Z,70.59
2023-04-09T00:05:41.119Z,70.45
2023-04-09T00:08:12.949Z,70.55
2023-04-09T00:10:41.333Z,70.63
2023-04-09T00:13:09.927Z,70.68
2023-04-09T00:15:39.131Z,70.60
2023-04-09T00:18:08.285Z,70.63
2023-04-09T00:20:37.029Z,70.55
2023-04-09T00:23:05.612Z,70.33
2023-04-09T00:25:34.607Z,70.57
2023-04-09T00:28:03.377Z,70.62
2023-04-09T00:30:31.994Z,70.39
2023-04-09T00:33:00.777Z,70.53
2023-04-09T00:35:29.377Z,70.39
2023-04-09T00:37:57.661Z,70.57
2023-04-09T00:40:36.687Z,70.59
2023-04-09T00:43:05.892Z,70.86
2023-04-09T00:45:38.395Z,71.02
2023-04-09T00:48:10.538Z,71.20
2023-04-09T00:50:39.636Z,70.79
2023-04-09T00:53:08.025Z,70.94
2023-04-09T00:55:37.040Z,71.09
2023-04-09T00:58:05.405Z,71.45
2023-04-09T01:00:33.892Z,72.01
2023-04-09T01:03:03.449Z,71.81
2023-04-09T01:05:47.135Z,72.14
2023-04-09T01:09:03.208Z,72.19
2023-04-09T01:11:49.910Z,72.46
2023-04-09T01:14:45.623Z,72.57
2023-04-09T01:17:26.825Z,73.01
2023-04-09T01:20:05.337Z,72.95
2023-04-09T01:22:42.693Z,73.01
2023-04-09T01:25:54.993Z,72.80
2023-04-09T01:28:32.577Z,73.22
2023-04-09T01:31:27.986Z,72.98
2023-04-09T01:34:01.474Z,72.41
2023-04-09T01:36:32.434Z,72.48
2023-04-09T01:39:02.502Z,72.67
2023-04-09T01:41:33.390Z,72.83
2023-04-09T01:44:04.224Z,72.54
2023-04-09T01:46:35.097Z,72.63
2023-04-09T01:49:05.158Z,72.65
2023-04-09T01:51:34.138Z,72.85
2023-04-09T01:54:02.581Z,72.80
2023-04-09T01:56:44.978Z,72.33
2023-04-09T01:59:14.265Z,72.26
2023-04-09T02:01:48.414Z,72.05
2023-04-09T02:04:29.881Z,72.31
2023-04-09T02:07:01.642Z,72.38
2023-04-09T02:09:32.089Z,71.99
2023-04-09T02:12:04.039Z,72.25
2023-04-09T02:14:37.890Z,72.23
2023-04-09T02:17:06.843Z,72.08
2023-04-09T02:19:45.279Z,72.22
2023-04-09T02:22:17.436Z,72.28
2023-04-09T02:24:46.939Z,72.22
2023-04-09T02:27:15.226Z,72.65
2023-04-09T02:29:43.817Z,72.34
2023-04-09T02:32:13.657Z,72.52
2023-04-09T02:34:42.633Z,72.36
2023-04-09T02:37:11.025Z,72.51
2023-04-09T02:39:39.616Z,72.42
2023-04-09T02:42:08.193Z,72.45
2023-04-09T02:44:36.691Z,72.45
2023-04-09T02:47:06.088Z,72.59
2023-04-09T02:49:35.090Z,72.81
2023-04-09T02:52:03.475Z,73.14
2023-04-09T02:54:34.731Z,73.52
2023-04-09T02:57:03.413Z,73.57
2023-04-09T02:59:33.131Z,73.81
2023-04-09T03:02:02.438Z,74.24
2023-04-09T03:04:30.936Z,74.17
2023-04-09T03:06:59.203Z,74.14
2023-04-09T03:09:27.594Z,74.32
2023-04-09T03:11:57.533Z,74.38
2023-04-09T03:14:26.814Z,74.52
2023-04-09T03:16:56.226Z,74.71
2023-04-09T03:19:24.808Z,74.95
2023-04-09T03:21:53.297Z,74.74
2023-04-09T03:24:23.628Z,74.43
2023-04-09T03:26:52.627Z,74.52
2023-04-09T03:29:21.215Z,74.39
2023-04-09T03:31:49.835Z,74.52
2023-04-09T03:34:18.393Z,74.47
2023-04-09T03:36:52.609Z,74.39
2023-04-09T03:39:30.988Z,74.26
2023-04-09T03:41:59.725Z,74.50
2023-04-09T03:44:30.863Z,74.30
2023-04-09T03:47:08.160Z,74.31
2023-04-09T03:49:37.153Z,73.98
2023-04-09T03:52:27.131Z,73.82
2023-04-09T03:55:08.002Z,73.62
2023-04-09T03:57:37.400Z,73.44
2023-04-09T04:00:09.313Z,73.53
2023-04-09T04:02:52.448Z,73.60
2023-04-09T04:05:31.519Z,73.65
2023-04-09T04:08:00.730Z,73.61
2023-04-09T04:10:29.823Z,73.56
2023-04-09T04:12:58.452Z,73.45
2023-04-09T04:15:43.377Z,73.41
2023-04-09T04:18:12.778Z,73.66
2023-04-09T04:20:54.671Z,73.68
2023-04-09T04:23:32.062Z,73.84
2023-04-09T04:26:11.061Z,73.79
2023-04-09T04:28:40.537Z,73.84
2023-04-09T04:31:13.002Z,73.99
2023-04-09T04:33:43.019Z,74.34
2023-04-09T04:36:16.599Z,74.22
2023-04-09T04:38:50.197Z,74.55
2023-04-09T04:41:24.939Z,74.71
2023-04-09T04:43:58.535Z,74.73
2023-04-09T04:46:27.739Z,75.14
2023-04-09T04:48:56.442Z,75.38
2023-04-09T04:51:24.725Z,75.49
2023-04-09T04:54:06.517Z,75.49
2023-04-09T04:56:34.890Z,75.42
2023-04-09T04:59:07.993Z,75.12
2023-04-09T05:01:48.672Z,74.90
2023-04-09T05:04:17.437Z,74.77
2023-04-09T05:06:46.337Z,74.94
2023-04-09T05:09:19.493Z,74.74
2023-04-09T05:11:59.475Z,74.55
2023-04-09T05:14:30.727Z,74.43
2023-04-09T05:16:59.718Z,74.38
2023-04-09T05:19:32.814Z,74.03
2023-04-09T05:22:03.557Z,73.29
2023-04-09T05:24:32.143Z,73.01
2023-04-09T05:27:01.547Z,73.03
2023-04-09T05:29:30.041Z,73.02
2023-04-09T05:31:58.321Z,73.16
2023-04-09T05:34:31.207Z,73.53
2023-04-09T05:37:00.000Z,73.39
2023-04-09T05:39:28.693Z,73.25
2023-04-09T05:41:59.637Z,73.36
2023-04-09T05:44:28.254Z,73.21
2023-04-09T05:47:03.678Z,73.30
2023-04-09T05:49:37.786Z,73.12
2023-04-09T05:52:11.292Z,72.82
2023-04-09T05:54:39.781Z,72.58
2023-04-09T05:57:09.286Z,72.70
2023-04-09T05:59:39.520Z,72.89
2023-04-09T06:02:08.252Z,72.58
2023-04-09T06:04:36.753Z,72.75
2023-04-09T06:07:05.175Z,72.32
2023-04-09T06:09:33.766Z,72.12
2023-04-09T06:12:04.303Z,71.60
2023-04-09T06:14:33.352Z,71.17
2023-04-09T06:17:01.991Z,71.02
2023-04-09T06:19:30.579Z,71.16
2023-04-09T06:21:58.974Z,70.88
2023-04-09T06:24:27.345Z,70.84
2023-04-09T06:26:55.736Z,70.81
2023-04-09T06:29:24.443Z,70.23
2023-04-09T06:31:53.017Z,70.05
2023-04-09T06:34:21.509Z,69.80
2023-04-09T06:36:49.989Z,69.21
2023-04-09T06:39:18.472Z,69.15
2023-04-09T06:41:46.759Z,69.30
2023-04-09T06:44:38.178Z,69.83
2023-04-09T06:47:09.330Z,69.69
2023-04-09T06:49:38.412Z,69.32
2023-04-09T06:52:07.626Z,68.97
2023-04-09T06:54:36.102Z,68.62
2023-04-09T06:57:04.391Z,68.48
2023-04-09T06:59:33.997Z,68.69
2023-04-09T07:02:02.584Z,68.79
2023-04-09T07:04:31.889Z,68.74
2023-04-09T07:07:00.482Z,68.90
2023-04-09T07:09:28.863Z,68.68
2023-04-09T07:11:57.148Z,68.34
2023-04-09T07:14:25.634Z,68.37
2023-04-09T07:16:54.427Z,67.84
2023-04-09T07:19:22.720Z,66.77
2023-04-09T07:21:51.649Z,65.68
2023-04-09T07:24:19.990Z,65.41
2023-04-09T07:26:49.972Z,64.90
2023-04-09T07:29:20.952Z,65.09
2023-04-09T07:31:49.612Z,65.46
2023-04-09T07:34:18.133Z,64.63
2023-04-09T07:36:46.616Z,64.75
2023-04-09T07:39:15.207Z,64.35
2023-04-09T07:41:43.600Z,63.70
2023-04-09T07:44:12.487Z,63.74
2023-04-09T07:46:41.736Z,63.53
2023-04-09T07:49:11.178Z,62.87
2023-04-09T07:51:39.797Z,63.57
2023-04-09T07:54:09.099Z,63.42
2023-04-09T07:56:38.614Z,62.50
2023-04-09T07:59:07.093Z,61.84
2023-04-09T08:01:38.129Z,61.93
2023-04-09T08:04:07.220Z,61.37
2023-04-09T08:06:36.649Z,61.88
2023-04-09T08:09:05.442Z,61.72
2023-04-09T08:11:34.347Z,61.99
2023-04-09T08:14:03.345Z,61.04
2023-04-09T08:16:31.847Z,60.29
2023-04-09T08:19:00.523Z,60.33
2023-04-09T08:21:29.414Z,60.90
2023-04-09T08:24:01.438Z,60.28
2023-04-09T08:26:29.868Z,59.66
2023-04-09T08:28:58.356Z,58.49
2023-04-09T08:31:27.657Z,58.12
2023-04-09T08:33:56.558Z,57.76
2023-04-09T08:36:24.986Z,58.51
2023-04-09T08:38:56.271Z,58.57
2023-04-09T08:41:26.802Z,57.24
2023-04-09T08:43:59.291Z,57.55
2023-04-09T08:46:28.919Z,57.85
2023-04-09T08:48:57.511Z,56.54
2023-04-09T08:51:25.994Z,56.34
2023-04-09T08:54:00.786Z,56.70
2023-04-09T08:56:32.573Z,56.28
2023-04-09T08:59:00.869Z,55.52
2023-04-09T09:01:31.542Z,55.91
2023-04-09T09:04:03.136Z,55.54
2023-04-09T09:06:36.554Z,54.12
2023-04-09T09:09:05.144Z,54.48
2023-04-09T09:11:35.488Z,54.19
2023-04-09T09:14:12.062Z,54.33
2023-04-09T09:17:03.951Z,53.98
2023-04-09T09:19:34.059Z,52.17
2023-04-09T09:22:04.402Z,50.80
2023-04-09T09:24:34.243Z,51.52
2023-04-09T09:27:03.150Z,51.70
2023-04-09T09:29:32.029Z,50.61
2023-04-09T09:32:00.925Z,50.80
2023-04-09T09:34:29.313Z,50.35
2023-04-09T09:36:57.797Z,47.29
2023-04-09T09:39:44.301Z,44.11
2023-04-09T09:42:12.788Z,42.50
2023-04-09T09:44:41.785Z,42.05
2023-04-09T09:47:13.540Z,41.81
2023-04-09T09:49:42.032Z,40.37
2023-04-09T09:52:11.640Z,38.76
2023-04-09T09:54:47.896Z,38.69
2023-04-09T09:57:19.275Z,36.43
2023-04-09T10:00:02.271Z,34.03
2023-04-09T10:02:57.401Z,36.00
2023-04-09T10:05:28.008Z,36.59
2023-04-09T10:08:00.586Z,34.68
2023-04-09T10:10:31.340Z,35.33
2023-04-09T10:13:00.016Z,34.71
2023-04-09T10:15:30.127Z,34.81
2023-04-09T10:17:58.488Z,34.85
2023-04-09T10:20:33.242Z,34.11
2023-04-09T10:23:06.472Z,33.54
2023-04-09T10:25:34.647Z,33.44
2023-04-09T10:28:03.479Z,33.44
2023-04-09T10:30:33.651Z,32.82
2023-04-09T10:33:16.835Z,31.89
2023-04-09T10:35:48.020Z,32.42
2023-04-09T10:38:16.526Z,32.35
2023-04-09T10:40:52.123Z,32.47
2023-04-09T10:43:22.348Z,31.91
2023-04-09T10:45:54.593Z,31.48
2023-04-09T10:48:26.280Z,29.91
2023-04-09T10:50:55.833Z,29.18
2023-04-09T10:53:27.794Z,29.47
2023-04-09T10:55:56.493Z,28.60
2023-04-09T10:58:24.767Z,27.62
2023-04-09T11:00:54.278Z,27.44
2023-04-09T11:03:25.438Z,27.37
2023-04-09T11:06:10.758Z,27.44
2023-04-09T11:08:39.358Z,26.54
2023-04-09T11:11:07.674Z,26.86
2023-04-09T11:13:36.676Z,26.56
2023-04-09T11:16:07.308Z,26.91
2023-04-09T11:18:37.232Z,27.14
2023-04-09T11:21:06.495Z,26.04
2023-04-09T11:23:35.751Z,26.76
2023-04-09T11:26:03.966Z,27.17
2023-04-09T11:28:32.209Z,26.49
2023-04-09T11:31:00.916Z,26.82
2023-04-09T11:33:34.353Z,26.91
2023-04-09T11:36:06.534Z,27.03
2023-04-09T11:38:38.521Z,27.21
2023-04-09T11:41:06.903Z,27.17
2023-04-09T11:43:36.828Z,27.11
2023-04-09T11:46:08.278Z,26.70
2023-04-09T11:48:37.080Z,26.26
2023-04-09T11:51:06.696Z,25.89
2023-04-09T11:53:37.632Z,25.65
2023-04-09T11:56:06.013Z,25.44
2023-04-09T11:58:34.231Z,24.64
2023-04-09T12:01:02.483Z,25.11
2023-04-09T12:03:36.844Z,24.86
2023-04-09T12:06:07.121Z,25.01
2023-04-09T12:08:36.478Z,24.45
2023-04-09T12:11:12.995Z,24.47
2023-04-09T12:13:44.782Z,23.97
2023-04-09T12:16:14.447Z,23.97
2023-04-09T12:18:43.168Z,23.92
2023-04-09T12:21:11.656Z,23.48
2023-04-09T12:23:39.873Z,22.71
2023-04-09T12:26:08.332Z,22.03
2023-04-09T12:28:37.222Z,23.61
2023-04-09T12:31:06.218Z,23.19
2023-04-09T12:33:34.603Z,22.20
2023-04-09T12:36:02.925Z,22.12
2023-04-09T12:38:31.489Z,21.34
2023-04-09T12:40:59.857Z,21.42
2023-04-09T12:43:28.358Z,21.68
2023-04-09T12:45:58.047Z,21.29
2023-04-09T12:48:26.959Z,21.00
2023-04-09T12:50:55.546Z,21.29
2023-04-09T12:53:23.926Z,20.89
2023-04-09T12:55:52.444Z,20.93
2023-04-09T12:58:21.001Z,20.20
2023-04-09T13:00:50.021Z,19.81
2023-04-09T13:03:18.335Z,20.08
2023-04-09T13:05:47.483Z,20.05
2023-04-09T13:08:16.487Z,19.79
2023-04-09T13:10:44.869Z,19.27
2023-04-09T13:13:13.566Z,19.93
2023-04-09T13:15:46.486Z,19.92
2023-04-09T13:18:14.938Z,19.52
2023-04-09T13:20:43.129Z,18.65
2023-04-09T13:23:11.405Z,18.37
2023-04-09T13:25:39.821Z,17.69
2023-04-09T13:28:08.066Z,18.23
2023-04-09T13:30:36.690Z,19.21
2023-04-09T13:33:05.127Z,19.84
2023-04-09T13:35:33.865Z,19.04
2023-04-09T13:38:02.323Z,18.76
2023-04-09T13:40:30.783Z,18.41
2023-04-09T13:42:58.988Z,19.09
2023-04-09T13:45:28.092Z,18.87
2023-04-09T13:47:56.931Z,18.47
2023-04-09T13:50:25.574Z,18.77
2023-04-09T13:52:54.269Z,19.72
2023-04-09T13:55:22.755Z,19.50
2023-04-09T13:57:51.345Z,18.84
2023-04-09T14:00:20.110Z,17.78
2023-04-09T14:02:48.448Z,18.08
2023-04-09T14:05:17.158Z,17.79
2023-04-09T14:07:45.288Z,18.08
2023-04-09T14:10:13.779Z,18.01
2023-04-09T14:12:42.588Z,17.55
2023-04-09T14:15:11.357Z,17.71
2023-04-09T14:17:40.022Z,17.83
2023-04-09T14:20:08.963Z,16.88
2023-04-09T14:22:37.231Z,17.51
2023-04-09T14:25:06.817Z,17.63
2023-04-09T14:27:35.028Z,17.77
2023-04-09T14:30:04.420Z,16.80
2023-04-09T14:32:32.762Z,17.60
2023-04-09T14:35:01.118Z,17.41
2023-04-09T14:37:29.583Z,17.33
2023-04-09T14:39:57.975Z,17.54
2023-04-09T14:42:26.460Z,18.09
2023-04-09T14:44:54.944Z,17.99
2023-04-09T14:47:23.744Z,18.00
2023-04-09T14:49:52.022Z,17.99
2023-04-09T14:52:21.020Z,18.29
2023-04-09T14:54:49.403Z,17.49
2023-04-09T14:57:17.895Z,18.07
2023-04-09T14:59:46.380Z,18.53
2023-04-09T15:02:14.992Z,18.05
2023-04-09T15:04:43.525Z,18.07
2023-04-09T15:07:11.945Z,18.47
2023-04-09T15:09:40.123Z,18.49
2023-04-09T15:12:09.835Z,18.53
2023-04-09T15:14:38.224Z,18.36
2023-04-09T15:17:06.607Z,18.78
2023-04-09T15:19:35.608Z,18.96
2023-04-09T15:22:04.193Z,18.40
2023-04-09T15:24:32.682Z,18.63
2023-04-09T15:27:01.737Z,19.09
2023-04-09T15:29:29.962Z,19.05
2023-04-09T15:31:58.391Z,19.84
2023-04-09T15:34:26.746Z,19.93
2023-04-09T15:36:55.233Z,20.34
2023-04-09T15:39:24.823Z,20.16
2023-04-09T15:41:53.214Z,20.36
2023-04-09T15:44:21.694Z,20.69
2023-04-09T15:46:51.130Z,20.98
2023-04-09T15:49:20.194Z,21.27
2023-04-09T15:51:48.804Z,21.06
2023-04-09T15:54:17.384Z,21.16
2023-04-09T15:56:45.970Z,21.76
2023-04-09T15:59:14.270Z,22.50
2023-04-09T16:01:42.580Z,23.30
2023-04-09T16:04:11.355Z,23.90
2023-04-09T16:06:39.720Z,24.97
2023-04-09T16:09:08.121Z,25.97
2023-04-09T16:11:37.619Z,26.60
2023-04-09T16:14:06.010Z,27.24
2023-04-09T16:16:34.737Z,27.85
2023-04-09T16:19:03.183Z,28.67
2023-04-09T16:21:32.305Z,29.83
2023-04-09T16:24:01.081Z,30.30
2023-04-09T16:26:29.667Z,31.01
2023-04-09T16:29:03.158Z,31.21
2023-04-09T16:31:31.558Z,31.27
2023-04-09T16:33:59.930Z,31.76
2023-04-09T16:36:28.621Z,32.91
2023-04-09T16:38:57.880Z,34.06
2023-04-09T16:41:26.529Z,34.96
2023-04-09T16:43:55.375Z,35.53
2023-04-09T16:46:24.334Z,36.30
2023-04-09T16:48:53.111Z,36.76
2023-04-09T16:51:21.992Z,36.86
2023-04-09T16:53:50.418Z,37.26
2023-04-09T16:56:18.869Z,37.85
2023-04-09T16:58:47.364Z,38.49
2023-04-09T17:01:15.958Z,38.93
2023-04-09T17:03:44.571Z,39.22
2023-04-09T17:06:13.425Z,40.14
2023-04-09T17:08:42.329Z,40.07
2023-04-09T17:11:15.562Z,40.25
2023-04-09T17:13:45.025Z,40.61
2023-04-09T17:16:14.430Z,41.23
2023-04-09T17:18:42.936Z,40.97
2023-04-09T17:21:12.650Z,41.52
2023-04-09T17:23:41.230Z,42.16
2023-04-09T17:26:09.735Z,42.71
2023-04-09T17:28:38.000Z,42.81
2023-04-09T17:31:13.312Z,43.65
2023-04-09T17:33:44.690Z,44.45
2023-04-09T17:36:13.017Z,44.40
2023-04-09T17:38:41.363Z,44.57
2023-04-09T17:41:09.743Z,44.68
2023-04-09T17:43:38.228Z,44.98
2023-04-09T17:46:10.291Z,45.07
2023-04-09T17:48:39.714Z,45.41
2023-04-09T17:51:08.748Z,45.49
2023-04-09T17:53:37.091Z,46.31
2023-04-09T17:56:06.172Z,46.87
2023-04-09T17:58:34.690Z,46.81
2023-04-09T18:01:07.598Z,47.51
2023-04-09T18:03:36.413Z,47.63
2023-04-09T18:06:05.134Z,47.62
2023-04-09T18:08:35.893Z,48.04
2023-04-09T18:11:12.700Z,48.15
2023-04-09T18:13:42.277Z,48.33
2023-04-09T18:16:12.418Z,48.27
2023-04-09T18:18:41.503Z,49.15
2023-04-09T18:21:09.989Z,49.32
2023-04-09T18:23:40.545Z,49.43
2023-04-09T18:26:09.136Z,49.78
2023-04-09T18:28:37.756Z,49.74
2023-04-09T18:31:06.572Z,50.84
2023-04-09T18:33:37.234Z,50.26
2023-04-09T18:36:06.403Z,50.26
2023-04-09T18:38:35.592Z,50.95
2023-04-09T18:41:04.136Z,50.93
2023-04-09T18:43:32.508Z,51.17
2023-04-09T18:46:01.561Z,51.36
2023-04-09T18:48:30.006Z,51.37
2023-04-09T18:50:59.301Z,51.72
2023-04-09T18:53:27.896Z,51.87
2023-04-09T18:55:56.689Z,52.05
2023-04-09T18:58:29.068Z,52.05
2023-04-09T19:00:57.563Z,52.12
2023-04-09T19:03:27.897Z,52.55
2023-04-09T19:06:00.403Z,52.71
2023-04-09T19:08:32.534Z,52.67
2023-04-09T19:11:00.925Z,52.75
2023-04-09T19:13:29.401Z,52.86
2023-04-09T19:15:58.574Z,53.30
2023-04-09T19:18:27.398Z,53.43
2023-04-09T19:20:56.295Z,54.03
2023-04-09T19:23:24.989Z,54.43
2023-04-09T19:25:56.235Z,54.41
2023-04-09T19:28:25.132Z,54.51
2023-04-09T19:30:53.930Z,54.55
2023-04-09T19:33:23.436Z,54.97
2023-04-09T19:35:54.200Z,54.93
2023-04-09T19:38:22.672Z,55.20
2023-04-09T19:40:51.431Z,55.68
2023-04-09T19:43:19.738Z,55.58
2023-04-09T19:45:48.525Z,55.41
2023-04-09T19:48:19.982Z,55.44
2023-04-09T19:50:49.232Z,56.00
2023-04-09T19:53:18.692Z,55.88
2023-04-09T19:55:46.999Z,56.10
2023-04-09T19:58:15.776Z,56.57
2023-04-09T20:00:44.371Z,56.99
2023-04-09T20:03:13.343Z,57.10
2023-04-09T20:05:41.847Z,57.31
2023-04-09T20:08:14.343Z,57.32
2023-04-09T20:10:46.592Z,57.08
2023-04-09T20:13:15.078Z,57.56
2023-04-09T20:15:44.385Z,57.62
2023-04-09T20:18:12.992Z,58.17
2023-04-09T20:20:41.775Z,57.71
2023-04-09T20:23:10.158Z,58.50
2023-04-09T20:25:38.638Z,58.42
2023-04-09T20:28:09.992Z,58.63
2023-04-09T20:30:38.378Z,59.23
2023-04-09T20:33:06.929Z,59.13
2023-04-09T20:35:36.547Z,59.30
2023-04-09T20:38:06.298Z,59.87
2023-04-09T20:40:37.749Z,60.05
2023-04-09T20:43:06.753Z,60.31
2023-04-09T20:45:35.687Z,60.87
2023-04-09T20:48:04.142Z,60.86
2023-04-09T20:50:32.625Z,60.88
2023-04-09T20:53:01.223Z,60.86
2023-04-09T20:55:29.999Z,61.03
2023-04-09T20:57:58.689Z,61.40
2023-04-09T21:00:27.694Z,61.30
2023-04-09T21:02:56.385Z,61.38
2023-04-09T21:05:24.861Z,61.21
2023-04-09T21:07:53.345Z,61.25
2023-04-09T21:10:21.871Z,61.52
2023-04-09T21:12:51.001Z,61.58
2023-04-09T21:15:19.734Z,61.27
2023-04-09T21:17:48.433Z,61.16
2023-04-09T21:20:17.836Z,61.13
2023-04-09T21:22:46.437Z,61.20
2023-04-09T21:25:15.643Z,61.35
2023-04-09T21:27:44.227Z,61.13
2023-04-09T21:30:12.812Z,61.29
2023-04-09T21:32:41.238Z,61.10
2023-04-09T21:35:09.605Z,60.95
2023-04-09T21:37:38.583Z,61.21
2023-04-09T21:40:08.007Z,60.99
2023-04-09T21:42:36.378Z,61.04
2023-04-09T21:45:05.623Z,61.17
2023-04-09T21:47:34.391Z,61.35
2023-04-09T21:50:04.257Z,61.11
2023-04-09T21:52:33.089Z,61.20
2023-04-09T21:55:01.678Z,61.31
2023-04-09T21:57:29.958Z,61.34
2023-04-09T21:59:59.058Z,61.57
2023-04-09T22:02:28.348Z,61.77
2023-04-09T22:04:59.394Z,61.86
2023-04-09T22:07:27.998Z,61.75
2023-04-09T22:09:57.718Z,61.82
2023-04-09T22:12:26.813Z,61.88
2023-04-09T22:14:55.715Z,62.07
2023-04-09T22:17:24.021Z,61.90
2023-04-09T22:19:52.992Z,61.94
2023-04-09T22:22:21.887Z,62.11
2023-04-09T22:24:50.168Z,61.95
2023-04-09T22:27:18.483Z,61.97
2023-04-09T22:29:47.036Z,62.12
2023-04-09T22:32:15.426Z,62.25
2023-04-09T22:34:44.014Z,62.61
2023-04-09T22:37:12.620Z,63.17
2023-04-09T22:39:41.396Z,63.34
2023-04-09T22:42:10.807Z,63.56
2023-04-09T22:44:40.170Z,63.84
2023-04-09T22:47:08.698Z,63.82
2023-04-09T22:49:37.082Z,63.78
2023-04-09T22:52:06.092Z,63.83
2023-04-09T22:54:34.573Z,63.89
2023-04-09T22:57:03.159Z,63.87
2023-04-09T22:59:39.952Z,63.83
2023-04-09T23:02:09.442Z,63.74
2023-04-09T23:04:39.086Z,63.80
2023-04-09T23:07:10.914Z,63.67
2023-04-09T23:09:39.101Z,63.88
2023-04-09T23:12:07.887Z,63.86
2023-04-09T23:14:36.582Z,63.58
2023-04-09T23:17:04.963Z,63.60
2023-04-09T23:19:33.861Z,63.61
2023-04-09T23:22:02.551Z,63.54
2023-04-09T23:24:31.037Z,63.23
2023-04-09T23:26:59.867Z,63.23
2023-04-09T23:29:28.211Z,63.03
2023-04-09T23:31:56.741Z,63.04
2023-04-09T23:34:25.593Z,63.19
2023-04-09T23:36:53.988Z,63.02
2023-04-09T23:39:22.572Z,63.29
2023-04-09T23:41:51.377Z,63.14
2023-04-09T23:44:19.964Z,63.27
2023-04-09T23:46:48.598Z,63.45
2023-04-09T23:49:17.135Z,63.33
2023-04-09T23:51:45.619Z,63.36
2023-04-09T23:54:13.886Z,63.66
2023-04-09T23:56:42.490Z,63.71
2023-04-09T23:59:11.354Z,63.69
